createdAt,value
2018-05-27T00:00:07.025Z,993.28
2018-05-27T00:01:06.954Z,993.26
2018-05-27T00:02:06.881Z,993.26
2018-05-27T00:03:06.809Z,993.26
2018-05-27T00:04:06.737Z,993.26
2018-05-27T00:05:06.665Z,993.26
2018-05-27T00:06:06.593Z,993.24
2018-05-27T00:07:06.522Z,993.26
2018-05-27T00:08:06.448Z,993.21
2018-05-27T00:09:06.377Z,993.19
2018-05-27T00:10:06.315Z,993.17
2018-05-27T00:11:06.233Z,993.10
2018-05-27T00:12:06.162Z,993.09
2018-05-27T00:13:06.090Z,993.01
2018-05-27T00:14:06.017Z,992.98
2018-05-27T00:15:05.945Z,992.91
2018-05-27T00:16:05.873Z,992.90
2018-05-27T00:17:05.802Z,992.84
2018-05-27T00:18:05.728Z,992.84
2018-05-27T00:19:05.656Z,992.79
2018-05-27T00:20:05.585Z,992.80
2018-05-27T00:21:05.512Z,992.75
2018-05-27T00:22:05.440Z,992.77
2018-05-27T00:23:05.369Z,992.74
2018-05-27T00:24:05.296Z,992.76
2018-05-27T00:25:05.224Z,992.69
2018-05-27T00:26:05.151Z,992.65
2018-05-27T00:27:05.080Z,992.63
2018-05-27T00:28:05.008Z,992.62
2018-05-27T00:29:04.938Z,992.60
2018-05-27T00:30:04.867Z,992.61
2018-05-27T00:31:04.792Z,992.56
2018-05-27T00:32:04.725Z,992.54
2018-05-27T00:33:04.647Z,992.56
2018-05-27T00:34:04.576Z,992.52
2018-05-27T00:35:04.504Z,992.51
2018-05-27T00:36:04.433Z,992.50
2018-05-27T00:37:04.360Z,992.53
2018-05-27T00:38:04.292Z,992.52
2018-05-27T00:39:04.216Z,992.49
2018-05-27T00:40:04.147Z,992.51
2018-05-27T00:41:04.072Z,992.49
2018-05-27T00:42:04.004Z,992.49
2018-05-27T00:43:03.928Z,992.53
2018-05-27T00:44:03.856Z,992.52
2018-05-27T00:45:03.784Z,992.51
2018-05-27T00:46:03.715Z,992.50
2018-05-27T00:47:03.640Z,992.50
2018-05-27T00:48:03.569Z,992.49
2018-05-27T00:49:03.499Z,992.48
2018-05-27T00:50:03.425Z,992.46
2018-05-27T00:51:03.354Z,992.44
2018-05-27T00:52:03.282Z,992.43
2018-05-27T00:53:03.211Z,992.43
2018-05-27T00:54:03.140Z,992.39
2018-05-27T00:55:03.068Z,992.38
2018-05-27T00:56:03.002Z,992.35
2018-05-27T00:57:02.924Z,992.32
2018-05-27T00:58:02.853Z,992.30
2018-05-27T00:59:02.781Z,992.27
2018-05-27T01:00:02.709Z,992.30
2018-05-27T01:01:02.638Z,992.29
2018-05-27T01:02:02.565Z,992.28
2018-05-27T01:03:02.495Z,992.30
2018-05-27T01:04:02.422Z,992.26
2018-05-27T01:05:02.350Z,992.31
2018-05-27T01:06:02.278Z,992.28
2018-05-27T01:07:02.206Z,992.31
2018-05-27T01:08:02.134Z,992.27
2018-05-27T01:09:02.063Z,992.27
2018-05-27T01:10:01.991Z,992.35
2018-05-27T01:11:01.921Z,992.28
2018-05-27T01:12:01.848Z,992.35
2018-05-27T01:13:01.777Z,992.31
2018-05-27T01:14:01.703Z,992.32
2018-05-27T01:15:01.637Z,992.34
2018-05-27T01:16:01.562Z,992.34
2018-05-27T01:17:01.491Z,992.35
2018-05-27T01:18:01.416Z,992.39
2018-05-27T01:19:01.345Z,992.33
2018-05-27T01:20:01.274Z,992.40
2018-05-27T01:21:01.202Z,992.39
2018-05-27T01:22:01.129Z,992.37
2018-05-27T01:23:01.058Z,992.42
2018-05-27T01:24:00.986Z,992.37
2018-05-27T01:25:00.915Z,992.36
2018-05-27T01:26:00.842Z,992.37
2018-05-27T01:27:00.770Z,992.32
2018-05-27T01:28:00.699Z,992.36
2018-05-27T01:29:00.627Z,992.35
2018-05-27T01:30:00.554Z,992.30
2018-05-27T01:31:00.484Z,992.31
2018-05-27T01:32:00.413Z,992.31
2018-05-27T01:33:00.342Z,992.30
2018-05-27T01:34:00.268Z,992.31
2018-05-27T01:35:00.196Z,992.28
2018-05-27T01:36:00.124Z,992.26
2018-05-27T01:37:00.051Z,992.29
2018-05-27T01:37:59.979Z,992.29
2018-05-27T01:39:00.257Z,992.22
2018-05-27T01:39:59.836Z,992.27
2018-05-27T01:40:59.764Z,992.31
2018-05-27T01:41:59.691Z,992.29
2018-05-27T01:42:59.628Z,992.24
2018-05-27T01:43:59.547Z,992.24
2018-05-27T01:44:59.478Z,992.23
2018-05-27T01:45:59.402Z,992.23
2018-05-27T01:46:59.332Z,992.22
2018-05-27T01:47:59.259Z,992.24
2018-05-27T01:48:59.186Z,992.21
2018-05-27T01:49:59.115Z,992.21
2018-05-27T01:50:59.042Z,992.20
2018-05-27T01:51:58.970Z,992.17
2018-05-27T01:52:58.901Z,992.16
2018-05-27T01:53:58.826Z,992.14
2018-05-27T01:54:58.754Z,992.14
2018-05-27T01:55:58.682Z,992.15
2018-05-27T01:56:58.611Z,992.14
2018-05-27T01:57:58.534Z,992.17
2018-05-27T01:58:58.467Z,992.19
2018-05-27T01:59:58.395Z,992.16
2018-05-27T02:00:58.319Z,992.19
2018-05-27T02:01:58.247Z,992.18
2018-05-27T02:02:58.177Z,992.15
2018-05-27T02:03:58.101Z,992.14
2018-05-27T02:04:58.030Z,992.17
2018-05-27T02:05:57.956Z,992.11
2018-05-27T02:06:57.886Z,992.13
2018-05-27T02:07:57.811Z,992.11
2018-05-27T02:08:57.742Z,992.13
2018-05-27T02:09:58.018Z,992.10
2018-05-27T02:10:57.594Z,992.09
2018-05-27T02:11:57.522Z,992.07
2018-05-27T02:12:57.450Z,992.05
2018-05-27T02:13:57.376Z,992.10
2018-05-27T02:14:57.304Z,992.06
2018-05-27T02:15:57.232Z,992.08
2018-05-27T02:16:57.161Z,992.06
2018-05-27T02:17:57.090Z,992.06
2018-05-27T02:18:57.015Z,992.01
2018-05-27T02:19:56.942Z,991.99
2018-05-27T02:20:56.870Z,991.98
2018-05-27T02:21:56.796Z,991.94
2018-05-27T02:22:56.724Z,991.93
2018-05-27T02:23:56.654Z,991.93
2018-05-27T02:24:56.581Z,991.93
2018-05-27T02:25:56.507Z,991.86
2018-05-27T02:26:56.434Z,991.91
2018-05-27T02:27:56.362Z,991.89
2018-05-27T02:28:56.291Z,991.88
2018-05-27T02:29:56.217Z,991.86
2018-05-27T02:30:56.145Z,991.87
2018-05-27T02:31:56.074Z,991.83
2018-05-27T02:32:56.001Z,991.84
2018-05-27T02:33:55.927Z,991.80
2018-05-27T02:34:55.855Z,991.82
2018-05-27T02:35:55.792Z,991.77
2018-05-27T02:36:55.711Z,991.78
2018-05-27T02:37:55.637Z,991.78
2018-05-27T02:38:55.565Z,991.79
2018-05-27T02:39:55.492Z,991.79
2018-05-27T02:40:55.421Z,991.75
2018-05-27T02:41:55.348Z,991.76
2018-05-27T02:42:55.274Z,991.76
2018-05-27T02:43:55.203Z,991.72
2018-05-27T02:44:55.131Z,991.72
2018-05-27T02:45:55.072Z,991.68
2018-05-27T02:46:54.985Z,991.73
2018-05-27T02:47:54.911Z,991.70
2018-05-27T02:48:54.859Z,991.70
2018-05-27T02:49:54.766Z,991.68
2018-05-27T02:50:54.844Z,991.72
2018-05-27T02:51:54.622Z,991.71
2018-05-27T02:52:54.549Z,991.77
2018-05-27T02:53:54.475Z,991.76
2018-05-27T02:54:54.403Z,991.77
2018-05-27T02:55:54.332Z,991.76
2018-05-27T02:56:54.259Z,991.79
2018-05-27T02:57:54.183Z,991.76
2018-05-27T02:58:54.112Z,991.79
2018-05-27T02:59:54.040Z,991.76
2018-05-27T03:00:53.971Z,991.78
2018-05-27T03:01:53.894Z,991.76
2018-05-27T03:02:53.826Z,991.74
2018-05-27T03:03:53.749Z,991.79
2018-05-27T03:04:53.677Z,991.80
2018-05-27T03:05:53.602Z,991.82
2018-05-27T03:06:53.530Z,991.82
2018-05-27T03:07:53.458Z,991.82
2018-05-27T03:08:53.385Z,991.84
2018-05-27T03:09:53.316Z,991.82
2018-05-27T03:10:53.238Z,991.82
2018-05-27T03:11:53.165Z,991.83
2018-05-27T03:12:53.094Z,991.82
2018-05-27T03:13:53.020Z,991.82
2018-05-27T03:14:52.954Z,991.84
2018-05-27T03:15:52.878Z,991.82
2018-05-27T03:16:52.802Z,991.82
2018-05-27T03:17:52.729Z,991.83
2018-05-27T03:18:52.657Z,991.81
2018-05-27T03:19:52.583Z,991.80
2018-05-27T03:20:52.510Z,991.83
2018-05-27T03:21:52.437Z,991.84
2018-05-27T03:22:52.368Z,991.82
2018-05-27T03:23:52.291Z,991.81
2018-05-27T03:24:52.223Z,991.81
2018-05-27T03:25:52.145Z,991.80
2018-05-27T03:26:52.075Z,991.82
2018-05-27T03:27:52.000Z,991.75
2018-05-27T03:28:51.927Z,991.79
2018-05-27T03:29:51.853Z,991.78
2018-05-27T03:30:51.781Z,991.81
2018-05-27T03:31:51.710Z,991.78
2018-05-27T03:32:51.636Z,991.76
2018-05-27T03:33:51.564Z,991.80
2018-05-27T03:34:51.492Z,991.80
2018-05-27T03:35:51.415Z,991.78
2018-05-27T03:36:51.345Z,991.81
2018-05-27T03:37:51.269Z,991.78
2018-05-27T03:38:51.199Z,991.78
2018-05-27T03:39:51.127Z,991.81
2018-05-27T03:40:51.053Z,991.77
2018-05-27T03:41:50.982Z,991.79
2018-05-27T03:42:50.906Z,991.81
2018-05-27T03:43:50.833Z,991.84
2018-05-27T03:44:50.761Z,991.82
2018-05-27T03:45:50.688Z,991.82
2018-05-27T03:46:50.615Z,991.83
2018-05-27T03:47:50.542Z,991.86
2018-05-27T03:48:50.470Z,991.89
2018-05-27T03:49:50.397Z,991.85
2018-05-27T03:50:50.323Z,991.89
2018-05-27T03:51:50.250Z,991.89
2018-05-27T03:52:50.178Z,991.88
2018-05-27T03:53:50.105Z,991.90
2018-05-27T03:54:50.032Z,991.87
2018-05-27T03:55:49.960Z,991.84
2018-05-27T03:56:49.888Z,991.81
2018-05-27T03:57:49.818Z,991.84
2018-05-27T03:58:49.742Z,991.83
2018-05-27T03:59:49.669Z,991.81
2018-05-27T04:00:49.596Z,991.78
2018-05-27T04:01:49.523Z,991.77
2018-05-27T04:02:49.451Z,991.76
2018-05-27T04:03:49.379Z,991.75
2018-05-27T04:04:49.306Z,991.72
2018-05-27T04:05:49.234Z,991.71
2018-05-27T04:06:49.162Z,991.73
2018-05-27T04:07:49.088Z,991.74
2018-05-27T04:08:49.016Z,991.72
2018-05-27T04:09:48.942Z,991.71
2018-05-27T04:10:48.870Z,991.73
2018-05-27T04:11:48.798Z,991.71
2018-05-27T04:12:48.728Z,991.75
2018-05-27T04:13:48.654Z,991.74
2018-05-27T04:14:48.581Z,991.74
2018-05-27T04:15:48.509Z,991.76
2018-05-27T04:16:48.437Z,991.79
2018-05-27T04:17:48.364Z,991.81
2018-05-27T04:18:48.291Z,991.85
2018-05-27T04:19:48.219Z,991.86
2018-05-27T04:20:48.148Z,991.83
2018-05-27T04:21:48.076Z,991.86
2018-05-27T04:22:48.003Z,991.89
2018-05-27T04:23:47.932Z,991.90
2018-05-27T04:24:47.859Z,991.89
2018-05-27T04:25:47.788Z,991.91
2018-05-27T04:26:47.717Z,991.92
2018-05-27T04:27:47.647Z,991.91
2018-05-27T04:28:47.723Z,991.93
2018-05-27T04:29:47.499Z,991.95
2018-05-27T04:30:47.428Z,991.98
2018-05-27T04:31:47.357Z,992.00
2018-05-27T04:32:47.284Z,992.01
2018-05-27T04:33:47.212Z,992.05
2018-05-27T04:34:47.140Z,992.05
2018-05-27T04:35:47.073Z,992.03
2018-05-27T04:36:46.997Z,992.03
2018-05-27T04:37:46.924Z,992.04
2018-05-27T04:38:46.854Z,992.01
2018-05-27T04:39:46.788Z,992.00
2018-05-27T04:40:46.716Z,992.00
2018-05-27T04:41:46.639Z,992.01
2018-05-27T04:42:46.565Z,992.03
2018-05-27T04:43:46.495Z,992.03
2018-05-27T04:44:46.423Z,992.03
2018-05-27T04:45:46.351Z,992.05
2018-05-27T04:46:46.293Z,992.04
2018-05-27T04:47:46.208Z,992.07
2018-05-27T04:48:46.140Z,992.08
2018-05-27T04:49:46.063Z,992.08
2018-05-27T04:50:45.993Z,992.11
2018-05-27T04:51:45.920Z,992.07
2018-05-27T04:52:45.849Z,992.10
2018-05-27T04:53:45.778Z,992.12
2018-05-27T04:54:45.706Z,992.17
2018-05-27T04:55:45.635Z,992.14
2018-05-27T04:56:45.563Z,992.16
2018-05-27T04:57:45.491Z,992.13
2018-05-27T04:58:45.422Z,992.17
2018-05-27T04:59:45.348Z,992.17
2018-05-27T05:00:45.277Z,992.15
2018-05-27T05:01:45.206Z,992.17
2018-05-27T05:02:45.133Z,992.17
2018-05-27T05:03:45.062Z,992.18
2018-05-27T05:04:44.994Z,992.14
2018-05-27T05:05:44.920Z,992.16
2018-05-27T05:06:44.847Z,992.16
2018-05-27T05:07:44.777Z,992.15
2018-05-27T05:08:44.706Z,992.16
2018-05-27T05:09:44.632Z,992.16
2018-05-27T05:10:44.562Z,992.13
2018-05-27T05:11:44.493Z,992.10
2018-05-27T05:12:44.419Z,992.12
2018-05-27T05:13:44.348Z,992.12
2018-05-27T05:14:44.276Z,992.12
2018-05-27T05:15:44.205Z,992.16
2018-05-27T05:16:44.135Z,992.10
2018-05-27T05:17:44.063Z,992.13
2018-05-27T05:18:43.994Z,992.16
2018-05-27T05:19:43.920Z,992.13
2018-05-27T05:20:43.850Z,992.12
2018-05-27T05:21:43.779Z,992.14
2018-05-27T05:22:43.707Z,992.15
2018-05-27T05:23:43.640Z,992.17
2018-05-27T05:24:43.567Z,992.15
2018-05-27T05:25:43.493Z,992.13
2018-05-27T05:26:43.423Z,992.13
2018-05-27T05:27:43.402Z,992.16
2018-05-27T05:28:43.280Z,992.14
2018-05-27T05:29:43.210Z,992.17
2018-05-27T05:30:43.139Z,992.17
2018-05-27T05:31:43.069Z,992.19
2018-05-27T05:32:42.997Z,992.16
2018-05-27T05:33:42.925Z,992.15
2018-05-27T05:34:42.858Z,992.16
2018-05-27T05:35:42.784Z,992.15
2018-05-27T05:36:42.719Z,992.18
2018-05-27T05:37:42.642Z,992.16
2018-05-27T05:38:42.571Z,992.16
2018-05-27T05:39:42.505Z,992.20
2018-05-27T05:40:42.432Z,992.19
2018-05-27T05:41:42.360Z,992.19
2018-05-27T05:42:42.289Z,992.22
2018-05-27T05:43:42.230Z,992.24
2018-05-27T05:44:42.148Z,992.26
2018-05-27T05:45:42.077Z,992.25
2018-05-27T05:46:42.006Z,992.26
2018-05-27T05:47:41.936Z,992.27
2018-05-27T05:48:41.865Z,992.28
2018-05-27T05:49:41.795Z,992.25
2018-05-27T05:50:41.874Z,992.26
2018-05-27T05:51:41.653Z,992.29
2018-05-27T05:52:41.582Z,992.31
2018-05-27T05:53:41.510Z,992.26
2018-05-27T05:54:41.441Z,992.27
2018-05-27T05:55:41.369Z,992.26
2018-05-27T05:56:41.299Z,992.31
2018-05-27T05:57:41.227Z,992.32
2018-05-27T05:58:41.157Z,992.31
2018-05-27T05:59:41.086Z,992.37
2018-05-27T06:00:41.016Z,992.33
2018-05-27T06:01:40.943Z,992.35
2018-05-27T06:02:40.872Z,992.31
2018-05-27T06:03:40.801Z,992.36
2018-05-27T06:04:40.735Z,992.33
2018-05-27T06:05:40.660Z,992.31
2018-05-27T06:06:40.589Z,992.30
2018-05-27T06:07:40.519Z,992.32
2018-05-27T06:08:40.447Z,992.35
2018-05-27T06:09:40.376Z,992.37
2018-05-27T06:10:40.305Z,992.36
2018-05-27T06:11:40.236Z,992.36
2018-05-27T06:12:40.164Z,992.37
2018-05-27T06:13:40.092Z,992.40
2018-05-27T06:14:40.024Z,992.38
2018-05-27T06:15:39.955Z,992.38
2018-05-27T06:16:39.881Z,992.34
2018-05-27T06:17:39.810Z,992.35
2018-05-27T06:18:39.740Z,992.37
2018-05-27T06:19:39.724Z,992.34
2018-05-27T06:20:39.600Z,992.36
2018-05-27T06:21:39.529Z,992.35
2018-05-27T06:22:39.462Z,992.32
2018-05-27T06:23:39.387Z,992.33
2018-05-27T06:24:39.318Z,992.36
2018-05-27T06:25:39.276Z,992.34
2018-05-27T06:26:39.177Z,992.35
2018-05-27T06:27:39.107Z,992.32
2018-05-27T06:28:39.039Z,992.36
2018-05-27T06:29:38.966Z,992.37
2018-05-27T06:30:38.895Z,992.41
2018-05-27T06:31:38.828Z,992.37
2018-05-27T06:32:38.757Z,992.43
2018-05-27T06:33:38.700Z,992.40
2018-05-27T06:34:38.619Z,992.43
2018-05-27T06:35:38.547Z,992.43
2018-05-27T06:36:38.478Z,992.43
2018-05-27T06:37:38.407Z,992.46
2018-05-27T06:38:38.354Z,992.47
2018-05-27T06:39:38.268Z,992.47
2018-05-27T06:40:38.202Z,992.46
2018-05-27T06:41:38.129Z,992.48
2018-05-27T06:42:38.058Z,992.49
2018-05-27T06:43:37.999Z,992.50
2018-05-27T06:44:37.918Z,992.47
2018-05-27T06:45:37.848Z,992.53
2018-05-27T06:46:37.779Z,992.51
2018-05-27T06:47:37.709Z,992.53
2018-05-27T06:48:37.639Z,992.54
2018-05-27T06:49:37.569Z,992.57
2018-05-27T06:50:37.499Z,992.58
2018-05-27T06:51:37.429Z,992.57
2018-05-27T06:52:37.365Z,992.54
2018-05-27T06:53:37.289Z,992.55
2018-05-27T06:54:37.221Z,992.51
2018-05-27T06:55:37.151Z,992.56
2018-05-27T06:56:37.086Z,992.50
2018-05-27T06:57:37.011Z,992.53
2018-05-27T06:58:36.943Z,992.55
2018-05-27T06:59:36.874Z,992.51
2018-05-27T07:00:36.803Z,992.51
2018-05-27T07:01:36.736Z,992.56
2018-05-27T07:02:36.664Z,992.54
2018-05-27T07:03:36.595Z,992.50
2018-05-27T07:04:36.576Z,992.52
2018-05-27T07:05:36.456Z,992.54
2018-05-27T07:06:36.388Z,992.54
2018-05-27T07:07:36.318Z,992.53
2018-05-27T07:08:36.251Z,992.53
2018-05-27T07:09:36.179Z,992.55
2018-05-27T07:10:36.111Z,992.50
2018-05-27T07:11:36.079Z,992.49
2018-05-27T07:12:35.976Z,992.50
2018-05-27T07:13:35.904Z,992.51
2018-05-27T07:14:35.838Z,992.47
2018-05-27T07:15:35.767Z,992.49
2018-05-27T07:16:35.697Z,992.43
2018-05-27T07:17:35.630Z,992.47
2018-05-27T07:18:35.560Z,992.44
2018-05-27T07:19:35.491Z,992.47
2018-05-27T07:20:35.424Z,992.42
2018-05-27T07:21:35.357Z,992.47
2018-05-27T07:22:35.291Z,992.47
2018-05-27T07:23:35.218Z,992.47
2018-05-27T07:24:35.150Z,992.47
2018-05-27T07:25:35.079Z,992.46
2018-05-27T07:26:35.011Z,992.48
2018-05-27T07:27:34.943Z,992.48
2018-05-27T07:28:34.875Z,992.49
2018-05-27T07:29:34.806Z,992.45
2018-05-27T07:30:34.738Z,992.47
2018-05-27T07:31:34.670Z,992.42
2018-05-27T07:32:34.602Z,992.48
2018-05-27T07:33:34.533Z,992.45
2018-05-27T07:34:34.489Z,992.40
2018-05-27T07:35:34.397Z,992.43
2018-05-27T07:36:34.328Z,992.45
2018-05-27T07:37:34.260Z,992.41
2018-05-27T07:38:34.192Z,992.40
2018-05-27T07:39:34.126Z,992.40
2018-05-27T07:40:34.057Z,992.36
2018-05-27T07:41:33.988Z,992.41
2018-05-27T07:42:33.927Z,992.41
2018-05-27T07:43:33.853Z,992.40
2018-05-27T07:44:33.785Z,992.41
2018-05-27T07:45:33.717Z,992.45
2018-05-27T07:46:33.649Z,992.44
2018-05-27T07:47:33.582Z,992.45
2018-05-27T07:48:33.515Z,992.47
2018-05-27T07:49:33.445Z,992.47
2018-05-27T07:50:33.378Z,992.49
2018-05-27T07:51:33.310Z,992.52
2018-05-27T07:52:33.246Z,992.56
2018-05-27T07:53:33.180Z,992.55
2018-05-27T07:54:33.108Z,992.55
2018-05-27T07:55:33.041Z,992.54
2018-05-27T07:56:32.973Z,992.54
2018-05-27T07:57:32.905Z,992.55
2018-05-27T07:58:32.859Z,992.53
2018-05-27T07:59:32.769Z,992.51
2018-05-27T08:00:32.702Z,992.51
2018-05-27T08:01:32.635Z,992.55
2018-05-27T08:02:32.568Z,992.55
2018-05-27T08:03:32.501Z,992.56
2018-05-27T08:04:32.433Z,992.54
2018-05-27T08:05:32.364Z,992.57
2018-05-27T08:06:32.297Z,992.56
2018-05-27T08:07:32.230Z,992.54
2018-05-27T08:08:32.163Z,992.54
2018-05-27T08:09:32.096Z,992.59
2018-05-27T08:10:32.031Z,992.54
2018-05-27T08:11:31.961Z,992.55
2018-05-27T08:12:31.893Z,992.60
2018-05-27T08:13:31.825Z,992.58
2018-05-27T08:14:31.759Z,992.57
2018-05-27T08:15:31.695Z,992.56
2018-05-27T08:16:31.625Z,992.52
2018-05-27T08:17:31.556Z,992.55
2018-05-27T08:18:31.489Z,992.56
2018-05-27T08:19:31.426Z,992.56
2018-05-27T08:20:31.357Z,992.57
2018-05-27T08:21:31.287Z,992.56
2018-05-27T08:22:31.221Z,992.57
2018-05-27T08:23:31.154Z,992.57
2018-05-27T08:24:31.087Z,992.56
2018-05-27T08:25:31.019Z,992.56
2018-05-27T08:26:30.953Z,992.53
2018-05-27T08:27:30.885Z,992.54
2018-05-27T08:28:30.819Z,992.53
2018-05-27T08:29:30.752Z,992.55
2018-05-27T08:30:30.685Z,992.53
2018-05-27T08:31:30.619Z,992.51
2018-05-27T08:32:30.552Z,992.53
2018-05-27T08:33:30.485Z,992.56
2018-05-27T08:34:30.418Z,992.54
2018-05-27T08:35:30.352Z,992.56
2018-05-27T08:36:30.285Z,992.57
2018-05-27T08:37:30.214Z,992.57
2018-05-27T08:38:30.150Z,992.55
2018-05-27T08:39:30.084Z,992.61
2018-05-27T08:40:30.016Z,992.64
2018-05-27T08:41:29.949Z,992.57
2018-05-27T08:42:29.882Z,992.60
2018-05-27T08:43:29.870Z,992.55
2018-05-27T08:44:29.750Z,992.62
2018-05-27T08:45:29.684Z,992.64
2018-05-27T08:46:29.615Z,992.63
2018-05-27T08:47:29.553Z,992.61
2018-05-27T08:48:29.485Z,992.61
2018-05-27T08:49:29.415Z,992.59
2018-05-27T08:50:29.347Z,992.61
2018-05-27T08:51:29.281Z,992.54
2018-05-27T08:52:29.216Z,992.58
2018-05-27T08:53:29.185Z,992.55
2018-05-27T08:54:29.080Z,992.57
2018-05-27T08:55:29.016Z,992.57
2018-05-27T08:56:28.948Z,992.54
2018-05-27T08:57:28.880Z,992.54
2018-05-27T08:58:28.813Z,992.57
2018-05-27T08:59:28.746Z,992.59
2018-05-27T09:00:28.679Z,992.59
2018-05-27T09:01:28.618Z,992.60
2018-05-27T09:02:28.546Z,992.54
2018-05-27T09:03:28.480Z,992.60
2018-05-27T09:04:28.413Z,992.58
2018-05-27T09:05:28.345Z,992.59
2018-05-27T09:06:28.280Z,992.60
2018-05-27T09:07:28.213Z,992.61
2018-05-27T09:08:28.148Z,992.63
2018-05-27T09:09:28.080Z,992.58
2018-05-27T09:10:28.015Z,992.52
2018-05-27T09:11:27.953Z,992.57
2018-05-27T09:12:27.882Z,992.58
2018-05-27T09:13:27.815Z,992.60
2018-05-27T09:14:27.749Z,992.61
2018-05-27T09:15:27.683Z,992.57
2018-05-27T09:16:27.617Z,992.59
2018-05-27T09:17:27.550Z,992.57
2018-05-27T09:18:27.486Z,992.57
2018-05-27T09:19:27.420Z,992.58
2018-05-27T09:20:27.353Z,992.60
2018-05-27T09:21:27.287Z,992.57
2018-05-27T09:22:27.221Z,992.56
2018-05-27T09:23:27.155Z,992.59
2018-05-27T09:24:27.088Z,992.62
2018-05-27T09:25:27.022Z,992.63
2018-05-27T09:26:26.956Z,992.63
2018-05-27T09:27:26.889Z,992.67
2018-05-27T09:28:26.825Z,992.67
2018-05-27T09:29:26.759Z,992.68
2018-05-27T09:30:26.692Z,992.61
2018-05-27T09:31:26.626Z,992.67
2018-05-27T09:32:26.559Z,992.65
2018-05-27T09:33:26.492Z,992.65
2018-05-27T09:34:26.426Z,992.65
2018-05-27T09:35:26.362Z,992.62
2018-05-27T09:36:26.295Z,992.65
2018-05-27T09:37:26.228Z,992.67
2018-05-27T09:38:26.166Z,992.65
2018-05-27T09:39:26.098Z,992.62
2018-05-27T09:40:26.032Z,992.64
2018-05-27T09:41:25.967Z,992.63
2018-05-27T09:42:25.901Z,992.62
2018-05-27T09:43:25.834Z,992.61
2018-05-27T09:44:25.769Z,992.60
2018-05-27T09:45:25.712Z,992.65
2018-05-27T09:46:25.638Z,992.64
2018-05-27T09:47:25.575Z,992.62
2018-05-27T09:48:25.508Z,992.58
2018-05-27T09:49:25.443Z,992.62
2018-05-27T09:50:25.376Z,992.60
2018-05-27T09:51:25.326Z,992.56
2018-05-27T09:52:25.250Z,992.53
2018-05-27T09:53:25.178Z,992.57
2018-05-27T09:54:25.114Z,992.59
2018-05-27T09:55:25.049Z,992.55
2018-05-27T09:56:24.987Z,992.57
2018-05-27T09:57:24.916Z,992.57
2018-05-27T09:58:24.852Z,992.58
2018-05-27T09:59:24.786Z,992.51
2018-05-27T10:00:24.721Z,992.52
2018-05-27T10:01:24.656Z,992.52
2018-05-27T10:02:24.590Z,992.51
2018-05-27T10:03:24.525Z,992.50
2018-05-27T10:04:24.459Z,992.48
2018-05-27T10:05:24.400Z,992.49
2018-05-27T10:06:24.329Z,992.54
2018-05-27T10:07:24.268Z,992.51
2018-05-27T10:08:24.200Z,992.49
2018-05-27T10:09:24.136Z,992.51
2018-05-27T10:10:24.067Z,992.46
2018-05-27T10:11:24.004Z,992.50
2018-05-27T10:12:23.937Z,992.46
2018-05-27T10:13:23.870Z,992.45
2018-05-27T10:14:23.807Z,992.45
2018-05-27T10:15:23.740Z,992.45
2018-05-27T10:16:23.676Z,992.45
2018-05-27T10:17:23.610Z,992.44
2018-05-27T10:18:23.544Z,992.46
2018-05-27T10:19:23.480Z,992.42
2018-05-27T10:20:23.415Z,992.46
2018-05-27T10:21:23.348Z,992.49
2018-05-27T10:22:23.284Z,992.43
2018-05-27T10:23:23.218Z,992.41
2018-05-27T10:24:23.155Z,992.41
2018-05-27T10:25:23.090Z,992.41
2018-05-27T10:26:23.028Z,992.42
2018-05-27T10:27:22.959Z,992.43
2018-05-27T10:28:22.894Z,992.43
2018-05-27T10:29:22.828Z,992.39
2018-05-27T10:30:22.762Z,992.39
2018-05-27T10:31:22.698Z,992.40
2018-05-27T10:32:22.634Z,992.39
2018-05-27T10:33:22.570Z,992.39
2018-05-27T10:34:22.505Z,992.39
2018-05-27T10:35:22.440Z,992.42
2018-05-27T10:36:22.377Z,992.36
2018-05-27T10:37:22.311Z,992.34
2018-05-27T10:38:22.246Z,992.33
2018-05-27T10:39:22.183Z,992.32
2018-05-27T10:40:22.118Z,992.31
2018-05-27T10:41:22.053Z,992.30
2018-05-27T10:42:21.988Z,992.29
2018-05-27T10:43:21.925Z,992.26
2018-05-27T10:44:21.860Z,992.27
2018-05-27T10:45:21.794Z,992.26
2018-05-27T10:46:21.732Z,992.25
2018-05-27T10:47:21.671Z,992.24
2018-05-27T10:48:21.602Z,992.20
2018-05-27T10:49:21.537Z,992.21
2018-05-27T10:50:21.473Z,992.20
2018-05-27T10:51:21.410Z,992.18
2018-05-27T10:52:21.346Z,992.16
2018-05-27T10:53:21.280Z,992.10
2018-05-27T10:54:21.216Z,992.07
2018-05-27T10:55:21.153Z,992.04
2018-05-27T10:56:21.087Z,992.04
2018-05-27T10:57:21.024Z,992.02
2018-05-27T10:58:20.960Z,992.03
2018-05-27T10:59:20.895Z,992.03
2018-05-27T11:00:20.830Z,991.99
2018-05-27T11:01:20.771Z,992.02
2018-05-27T11:02:20.852Z,992.02
2018-05-27T11:03:20.638Z,991.98
2018-05-27T11:04:20.575Z,991.98
2018-05-27T11:05:20.509Z,991.99
2018-05-27T11:06:20.447Z,991.94
2018-05-27T11:07:20.382Z,991.98
2018-05-27T11:08:20.318Z,991.95
2018-05-27T11:09:20.257Z,991.95
2018-05-27T11:10:20.191Z,991.95
2018-05-27T11:11:20.135Z,991.93
2018-05-27T11:12:20.065Z,991.98
2018-05-27T11:13:20.000Z,991.95
2018-05-27T11:14:19.937Z,991.94
2018-05-27T11:15:19.873Z,991.96
2018-05-27T11:16:19.810Z,991.94
2018-05-27T11:17:19.746Z,991.93
2018-05-27T11:18:19.683Z,991.86
2018-05-27T11:19:19.619Z,991.93
2018-05-27T11:20:19.557Z,991.92
2018-05-27T11:21:19.493Z,991.92
2018-05-27T11:22:19.431Z,991.87
2018-05-27T11:23:19.370Z,991.83
2018-05-27T11:24:19.305Z,991.86
2018-05-27T11:25:19.243Z,991.85
2018-05-27T11:26:19.180Z,991.84
2018-05-27T11:27:19.119Z,991.79
2018-05-27T11:28:19.056Z,991.86
2018-05-27T11:29:18.993Z,991.82
2018-05-27T11:30:18.932Z,991.77
2018-05-27T11:31:18.870Z,991.79
2018-05-27T11:32:18.809Z,991.74
2018-05-27T11:33:18.745Z,991.75
2018-05-27T11:34:18.683Z,991.79
2018-05-27T11:35:18.622Z,991.86
2018-05-27T11:36:18.560Z,991.82
2018-05-27T11:37:18.498Z,991.85
2018-05-27T11:38:18.436Z,991.78
2018-05-27T11:39:18.376Z,991.74
2018-05-27T11:40:18.314Z,991.80
2018-05-27T11:41:18.253Z,991.87
2018-05-27T11:42:18.200Z,991.91
2018-05-27T11:43:18.132Z,991.85
2018-05-27T11:44:18.073Z,991.84
2018-05-27T11:45:18.013Z,991.82
2018-05-27T11:46:17.955Z,991.88
2018-05-27T11:47:17.895Z,991.81
2018-05-27T11:48:17.839Z,991.88
2018-05-27T11:49:17.778Z,991.82
2018-05-27T11:50:17.718Z,991.74
2018-05-27T11:51:17.661Z,992.04
2018-05-27T11:52:17.605Z,992.39
2018-05-27T11:53:17.545Z,992.23
2018-05-27T11:54:17.556Z,992.10
2018-05-27T11:55:17.432Z,992.04
2018-05-27T11:56:17.377Z,992.17
2018-05-27T11:57:17.319Z,992.24
2018-05-27T11:58:17.265Z,992.34
2018-05-27T11:59:17.208Z,992.41
2018-05-27T12:00:17.153Z,992.41
2018-05-27T12:01:17.096Z,992.46
2018-05-27T12:02:17.041Z,992.43
2018-05-27T12:03:16.987Z,992.41
2018-05-27T12:04:16.934Z,992.51
2018-05-27T12:05:16.875Z,992.56
2018-05-27T12:06:16.821Z,992.56
2018-05-27T12:07:16.768Z,992.53
2018-05-27T12:08:16.713Z,992.47
2018-05-27T12:09:16.781Z,992.37
2018-05-27T12:10:16.606Z,991.54
2018-05-27T12:11:16.551Z,992.51
2018-05-27T12:12:16.498Z,992.37
2018-05-27T12:13:16.442Z,992.37
2018-05-27T12:14:16.389Z,992.41
2018-05-27T12:15:16.335Z,992.38
2018-05-27T12:16:16.282Z,992.27
2018-05-27T12:17:16.228Z,992.31
2018-05-27T12:18:16.174Z,992.35
2018-05-27T12:19:16.121Z,992.27
2018-05-27T12:20:16.068Z,992.22
2018-05-27T12:21:16.016Z,992.24
2018-05-27T12:22:15.962Z,992.28
2018-05-27T12:23:15.915Z,992.27
2018-05-27T12:24:15.857Z,992.14
2018-05-27T12:25:15.803Z,992.08
2018-05-27T12:26:15.751Z,992.11
2018-05-27T12:27:15.700Z,992.08